sensor_id;sensor_type;location;lat;lon;timestamp;P1;durP1;ratioP1;P2;durP2;ratioP2
1665;SDS011;831;48.308;14.294;2022-07-23T00:01:52;23.00;;;21.70;;
1665;SDS011;831;48.308;14.294;2022-07-23T00:04:19;24.30;;;22.90;;
1665;SDS011;831;48.308;14.294;2022-07-23T00:06:45;24.40;;;23.00;;
1665;SDS011;831;48.308;14.294;2022-07-23T00:09:13;24.00;;;22.60;;
1665;SDS011;831;48.308;14.294;2022-07-23T00:11:40;24.90;;;23.50;;
1665;SDS011;831;48.308;14.294;2022-07-23T00:14:06;24.43;;;23.00;;
1665;SDS011;831;48.308;14.294;2022-07-23T00:16:33;25.03;;;23.63;;
1665;SDS011;831;48.308;14.294;2022-07-23T00:18:59;24.10;;;22.80;;
1665;SDS011;831;48.308;14.294;2022-07-23T00:21:27;24.30;;;23.00;;
1665;SDS011;831;48.308;14.294;2022-07-23T00:23:54;24.30;;;23.00;;
1665;SDS011;831;48.308;14.294;2022-07-23T00:26:22;22.73;;;21.43;;
1665;SDS011;831;48.308;14.294;2022-07-23T00:28:48;25.10;;;23.70;;
1665;SDS011;831;48.308;14.294;2022-07-23T00:31:15;24.60;;;23.30;;
1665;SDS011;831;48.308;14.294;2022-07-23T00:33:41;25.00;;;23.60;;
1665;SDS011;831;48.308;14.294;2022-07-23T00:36:08;25.20;;;23.80;;
1665;SDS011;831;48.308;14.294;2022-07-23T00:38:35;25.10;;;23.70;;
1665;SDS011;831;48.308;14.294;2022-07-23T00:41:01;23.20;;;21.87;;
1665;SDS011;831;48.308;14.294;2022-07-23T00:43:29;24.00;;;22.60;;
1665;SDS011;831;48.308;14.294;2022-07-23T00:45:56;23.47;;;22.17;;
1665;SDS011;831;48.308;14.294;2022-07-23T00:48:22;23.37;;;22.10;;
1665;SDS011;831;48.308;14.294;2022-07-23T00:50:49;24.50;;;23.10;;
1665;SDS011;831;48.308;14.294;2022-07-23T00:53:16;24.10;;;22.60;;
1665;SDS011;831;48.308;14.294;2022-07-23T00:55:42;23.67;;;22.33;;
1665;SDS011;831;48.308;14.294;2022-07-23T00:58:09;22.80;;;21.60;;
1665;SDS011;831;48.308;14.294;2022-07-23T01:00:37;22.77;;;21.37;;
1665;SDS011;831;48.308;14.294;2022-07-23T01:03:04;23.30;;;22.10;;
1665;SDS011;831;48.308;14.294;2022-07-23T01:05:30;22.70;;;21.30;;
1665;SDS011;831;48.308;14.294;2022-07-23T01:07:57;23.73;;;22.43;;
1665;SDS011;831;48.308;14.294;2022-07-23T01:10:23;22.70;;;21.50;;
1665;SDS011;831;48.308;14.294;2022-07-23T01:12:59;22.43;;;21.27;;
1665;SDS011;831;48.308;14.294;2022-07-23T01:15:26;21.90;;;20.80;;
1665;SDS011;831;48.308;14.294;2022-07-23T01:17:54;22.07;;;20.87;;
1665;SDS011;831;48.308;14.294;2022-07-23T01:20:20;22.17;;;20.97;;
1665;SDS011;831;48.308;14.294;2022-07-23T01:22:48;23.00;;;21.70;;
1665;SDS011;831;48.308;14.294;2022-07-23T01:25:15;20.80;;;19.70;;
1665;SDS011;831;48.308;14.294;2022-07-23T01:27:42;22.23;;;20.83;;
1665;SDS011;831;48.308;14.294;2022-07-23T01:30:09;22.30;;;21.03;;
1665;SDS011;831;48.308;14.294;2022-07-23T01:32:35;22.60;;;21.40;;
1665;SDS011;831;48.308;14.294;2022-07-23T01:35:02;22.83;;;21.50;;
1665;SDS011;831;48.308;14.294;2022-07-23T01:37:29;21.77;;;20.53;;
1665;SDS011;831;48.308;14.294;2022-07-23T01:39:57;23.07;;;21.77;;
1665;SDS011;831;48.308;14.294;2022-07-23T01:42:24;24.10;;;22.70;;
1665;SDS011;831;48.308;14.294;2022-07-23T01:44:50;23.10;;;21.80;;
1665;SDS011;831;48.308;14.294;2022-07-23T01:47:17;23.97;;;22.57;;
1665;SDS011;831;48.308;14.294;2022-07-23T01:49:43;23.83;;;22.43;;
1665;SDS011;831;48.308;14.294;2022-07-23T01:52:10;23.17;;;21.87;;
1665;SDS011;831;48.308;14.294;2022-07-23T01:54:37;22.87;;;21.50;;
1665;SDS011;831;48.308;14.294;2022-07-23T01:57:06;23.47;;;22.27;;
1665;SDS011;831;48.308;14.294;2022-07-23T01:59:32;23.40;;;22.10;;
1665;SDS011;831;48.308;14.294;2022-07-23T02:01:59;23.10;;;21.90;;
1665;SDS011;831;48.308;14.294;2022-07-23T02:04:25;22.60;;;21.40;;
1665;SDS011;831;48.308;14.294;2022-07-23T02:06:53;22.50;;;21.20;;
1665;SDS011;831;48.308;14.294;2022-07-23T02:09:20;22.47;;;21.27;;
1665;SDS011;831;48.308;14.294;2022-07-23T02:11:47;23.03;;;21.73;;
1665;SDS011;831;48.308;14.294;2022-07-23T02:14:15;22.27;;;21.07;;
1665;SDS011;831;48.308;14.294;2022-07-23T02:16:42;22.77;;;21.47;;
1665;SDS011;831;48.308;14.294;2022-07-23T02:19:08;24.07;;;22.67;;
1665;SDS011;831;48.308;14.294;2022-07-23T02:21:35;23.30;;;22.00;;
1665;SDS011;831;48.308;14.294;2022-07-23T02:24:01;23.47;;;22.07;;
1665;SDS011;831;48.308;14.294;2022-07-23T02:26:28;23.37;;;21.97;;
1665;SDS011;831;48.308;14.294;2022-07-23T02:28:57;24.07;;;22.77;;
1665;SDS011;831;48.308;14.294;2022-07-23T02:31:25;23.70;;;22.30;;
1665;SDS011;831;48.308;14.294;2022-07-23T02:33:52;21.90;;;20.70;;
1665;SDS011;831;48.308;14.294;2022-07-23T02:36:18;25.00;;;23.40;;
1665;SDS011;831;48.308;14.294;2022-07-23T02:38:45;24.50;;;23.00;;
1665;SDS011;831;48.308;14.294;2022-07-23T02:41:12;24.30;;;22.83;;
1665;SDS011;831;48.308;14.294;2022-07-23T02:43:38;24.73;;;23.33;;
1665;SDS011;831;48.308;14.294;2022-07-23T02:46:05;25.77;;;24.27;;
1665;SDS011;831;48.308;14.294;2022-07-23T02:48:33;25.30;;;23.90;;
1665;SDS011;831;48.308;14.294;2022-07-23T02:50:59;26.60;;;25.00;;
1665;SDS011;831;48.308;14.294;2022-07-23T02:53:26;25.97;;;24.47;;
1665;SDS011;831;48.308;14.294;2022-07-23T02:55:53;23.97;;;22.67;;
1665;SDS011;831;48.308;14.294;2022-07-23T02:58:19;25.53;;;24.10;;
1665;SDS011;831;48.308;14.294;2022-07-23T03:00:46;25.30;;;23.80;;
1665;SDS011;831;48.308;14.294;2022-07-23T03:03:13;26.40;;;25.00;;
1665;SDS011;831;48.308;14.294;2022-07-23T03:05:41;24.40;;;23.10;;
1665;SDS011;831;48.308;14.294;2022-07-23T03:08:07;25.67;;;24.17;;
1665;SDS011;831;48.308;14.294;2022-07-23T03:10:34;24.93;;;23.53;;
1665;SDS011;831;48.308;14.294;2022-07-23T03:13:00;25.10;;;23.60;;
1665;SDS011;831;48.308;14.294;2022-07-23T03:15:27;24.63;;;23.07;;
1665;SDS011;831;48.308;14.294;2022-07-23T03:17:53;26.00;;;24.60;;
1665;SDS011;831;48.308;14.294;2022-07-23T03:20:20;26.47;;;24.97;;
1665;SDS011;831;48.308;14.294;2022-07-23T03:22:48;25.40;;;24.00;;
1665;SDS011;831;48.308;14.294;2022-07-23T03:25:14;24.87;;;23.47;;
1665;SDS011;831;48.308;14.294;2022-07-23T03:27:41;24.23;;;22.93;;
1665;SDS011;831;48.308;14.294;2022-07-23T03:30:07;25.17;;;23.47;;
1665;SDS011;831;48.308;14.294;2022-07-23T03:32:34;24.83;;;23.47;;
1665;SDS011;831;48.308;14.294;2022-07-23T03:35:01;24.70;;;23.30;;
1665;SDS011;831;48.308;14.294;2022-07-23T03:37:28;25.70;;;24.27;;
1665;SDS011;831;48.308;14.294;2022-07-23T03:39:55;26.20;;;24.70;;
1665;SDS011;831;48.308;14.294;2022-07-23T03:42:22;25.87;;;24.30;;
1665;SDS011;831;48.308;14.294;2022-07-23T03:44:48;24.70;;;23.30;;
1665;SDS011;831;48.308;14.294;2022-07-23T03:47:15;25.10;;;23.60;;
1665;SDS011;831;48.308;14.294;2022-07-23T03:49:42;24.50;;;23.13;;
1665;SDS011;831;48.308;14.294;2022-07-23T03:52:09;23.63;;;22.23;;
1665;SDS011;831;48.308;14.294;2022-07-23T03:54:35;23.27;;;21.97;;
1665;SDS011;831;48.308;14.294;2022-07-23T03:57:03;24.13;;;22.63;;
1665;SDS011;831;48.308;14.294;2022-07-23T03:59:30;26.47;;;24.77;;
1665;SDS011;831;48.308;14.294;2022-07-23T04:01:56;24.50;;;23.07;;
1665;SDS011;831;48.308;14.294;2022-07-23T04:04:23;26.50;;;24.50;;
1665;SDS011;831;48.308;14.294;2022-07-23T04:06:49;26.27;;;24.77;;
1665;SDS011;831;48.308;14.294;2022-07-23T04:09:16;24.67;;;23.27;;
1665;SDS011;831;48.308;14.294;2022-07-23T04:11:42;26.17;;;24.70;;
1665;SDS011;831;48.308;14.294;2022-07-23T04:14:10;24.70;;;23.30;;
1665;SDS011;831;48.308;14.294;2022-07-23T04:16:37;23.90;;;22.50;;
1665;SDS011;831;48.308;14.294;2022-07-23T04:19:03;25.50;;;23.83;;
1665;SDS011;831;48.308;14.294;2022-07-23T04:21:30;26.20;;;24.70;;
1665;SDS011;831;48.308;14.294;2022-07-23T04:23:56;24.83;;;23.33;;
1665;SDS011;831;48.308;14.294;2022-07-23T04:26:23;24.67;;;23.17;;
1665;SDS011;831;48.308;14.294;2022-07-23T04:28:49;25.70;;;24.30;;
1665;SDS011;831;48.308;14.294;2022-07-23T04:31:17;25.57;;;24.07;;
1665;SDS011;831;48.308;14.294;2022-07-23T04:33:44;24.53;;;23.23;;
1665;SDS011;831;48.308;14.294;2022-07-23T04:36:10;24.73;;;23.23;;
1665;SDS011;831;48.308;14.294;2022-07-23T04:38:37;24.53;;;23.10;;
1665;SDS011;831;48.308;14.294;2022-07-23T04:41:04;23.10;;;21.80;;
1665;SDS011;831;48.308;14.294;2022-07-23T04:43:31;24.17;;;22.77;;
1665;SDS011;831;48.308;14.294;2022-07-23T04:45:57;23.17;;;21.97;;
1665;SDS011;831;48.308;14.294;2022-07-23T04:48:25;22.03;;;20.73;;
1665;SDS011;831;48.308;14.294;2022-07-23T04:50:52;21.40;;;20.23;;
1665;SDS011;831;48.308;14.294;2022-07-23T04:53:18;19.77;;;18.63;;
1665;SDS011;831;48.308;14.294;2022-07-23T04:55:45;20.00;;;18.80;;
1665;SDS011;831;48.308;14.294;2022-07-23T04:58:11;18.37;;;17.47;;
1665;SDS011;831;48.308;14.294;2022-07-23T05:00:38;17.47;;;16.47;;
1665;SDS011;831;48.308;14.294;2022-07-23T05:03:04;17.53;;;16.63;;
1665;SDS011;831;48.308;14.294;2022-07-23T05:05:32;17.97;;;16.97;;
1665;SDS011;831;48.308;14.294;2022-07-23T05:07:59;16.53;;;15.70;;
1665;SDS011;831;48.308;14.294;2022-07-23T05:10:25;17.10;;;16.20;;
1665;SDS011;831;48.308;14.294;2022-07-23T05:12:52;20.07;;;18.87;;
1665;SDS011;831;48.308;14.294;2022-07-23T05:15:18;18.63;;;17.53;;
1665;SDS011;831;48.308;14.294;2022-07-23T05:17:45;18.40;;;17.20;;
1665;SDS011;831;48.308;14.294;2022-07-23T05:20:12;19.83;;;18.70;;
1665;SDS011;831;48.308;14.294;2022-07-23T05:22:40;19.23;;;18.20;;
1665;SDS011;831;48.308;14.294;2022-07-23T05:25:06;19.83;;;18.50;;
1665;SDS011;831;48.308;14.294;2022-07-23T05:27:33;19.73;;;18.73;;
1665;SDS011;831;48.308;14.294;2022-07-23T05:30:00;19.70;;;18.40;;
1665;SDS011;831;48.308;14.294;2022-07-23T05:32:26;19.30;;;18.23;;
1665;SDS011;831;48.308;14.294;2022-07-23T05:34:53;18.23;;;17.33;;
1665;SDS011;831;48.308;14.294;2022-07-23T05:37:19;17.87;;;16.97;;
1665;SDS011;831;48.308;14.294;2022-07-23T05:39:47;17.80;;;16.80;;
1665;SDS011;831;48.308;14.294;2022-07-23T05:42:14;17.33;;;16.40;;
1665;SDS011;831;48.308;14.294;2022-07-23T05:44:40;17.10;;;16.20;;
1665;SDS011;831;48.308;14.294;2022-07-23T05:47:07;16.67;;;15.80;;
1665;SDS011;831;48.308;14.294;2022-07-23T05:49:33;17.00;;;16.10;;
1665;SDS011;831;48.308;14.294;2022-07-23T05:52:03;16.80;;;15.90;;
1665;SDS011;831;48.308;14.294;2022-07-23T05:54:29;15.13;;;14.43;;
1665;SDS011;831;48.308;14.294;2022-07-23T05:56:57;16.80;;;15.83;;
1665;SDS011;831;48.308;14.294;2022-07-23T05:59:24;16.00;;;15.13;;
1665;SDS011;831;48.308;14.294;2022-07-23T06:01:50;15.83;;;14.87;;
1665;SDS011;831;48.308;14.294;2022-07-23T06:04:16;15.87;;;15.03;;
1665;SDS011;831;48.308;14.294;2022-07-23T06:06:43;14.70;;;13.83;;
1665;SDS011;831;48.308;14.294;2022-07-23T06:09:10;16.00;;;15.20;;
1665;SDS011;831;48.308;14.294;2022-07-23T06:11:38;15.50;;;14.60;;
1665;SDS011;831;48.308;14.294;2022-07-23T06:14:06;15.60;;;14.80;;
1665;SDS011;831;48.308;14.294;2022-07-23T06:16:33;14.73;;;13.93;;
1665;SDS011;831;48.308;14.294;2022-07-23T06:18:59;15.80;;;14.90;;
1665;SDS011;831;48.308;14.294;2022-07-23T06:21:26;15.97;;;15.13;;
1665;SDS011;831;48.308;14.294;2022-07-23T06:23:52;15.70;;;14.80;;
1665;SDS011;831;48.308;14.294;2022-07-23T06:26:19;15.67;;;14.87;;
1665;SDS011;831;48.308;14.294;2022-07-23T06:28:45;16.07;;;15.17;;
1665;SDS011;831;48.308;14.294;2022-07-23T06:31:13;15.80;;;15.00;;
1665;SDS011;831;48.308;14.294;2022-07-23T06:33:40;16.80;;;15.90;;
1665;SDS011;831;48.308;14.294;2022-07-23T06:36:06;17.40;;;16.37;;
1665;SDS011;831;48.308;14.294;2022-07-23T06:38:33;16.70;;;15.70;;
1665;SDS011;831;48.308;14.294;2022-07-23T06:41:00;16.53;;;15.73;;
1665;SDS011;831;48.308;14.294;2022-07-23T06:43:26;17.67;;;16.67;;
1665;SDS011;831;48.308;14.294;2022-07-23T06:45:53;16.50;;;15.60;;
1665;SDS011;831;48.308;14.294;2022-07-23T06:48:21;16.20;;;15.30;;
1665;SDS011;831;48.308;14.294;2022-07-23T06:50:47;16.57;;;15.47;;
1665;SDS011;831;48.308;14.294;2022-07-23T06:53:14;16.00;;;15.20;;
1665;SDS011;831;48.308;14.294;2022-07-23T06:55:40;16.93;;;16.03;;
1665;SDS011;831;48.308;14.294;2022-07-23T06:58:07;17.27;;;16.20;;
1665;SDS011;831;48.308;14.294;2022-07-23T07:00:38;17.00;;;16.10;;
1665;SDS011;831;48.308;14.294;2022-07-23T07:03:04;16.80;;;15.90;;
1665;SDS011;831;48.308;14.294;2022-07-23T07:05:32;17.37;;;16.47;;
1665;SDS011;831;48.308;14.294;2022-07-23T07:07:58;17.50;;;16.50;;
1665;SDS011;831;48.308;14.294;2022-07-23T07:10:25;16.83;;;15.83;;
1665;SDS011;831;48.308;14.294;2022-07-23T07:12:51;17.63;;;16.53;;
1665;SDS011;831;48.308;14.294;2022-07-23T07:15:18;17.13;;;16.23;;
1665;SDS011;831;48.308;14.294;2022-07-23T07:17:45;16.70;;;15.90;;
1665;SDS011;831;48.308;14.294;2022-07-23T07:20:12;16.47;;;15.57;;
1665;SDS011;831;48.308;14.294;2022-07-23T07:22:40;16.60;;;15.80;;
1665;SDS011;831;48.308;14.294;2022-07-23T07:25:07;17.03;;;16.03;;
1665;SDS011;831;48.308;14.294;2022-07-23T07:27:34;16.97;;;16.03;;
1665;SDS011;831;48.308;14.294;2022-07-23T07:30:00;17.23;;;16.33;;
1665;SDS011;831;48.308;14.294;2022-07-23T07:32:27;16.40;;;15.50;;
1665;SDS011;831;48.308;14.294;2022-07-23T07:34:53;17.40;;;16.43;;
1665;SDS011;831;48.308;14.294;2022-07-23T07:37:20;16.63;;;15.73;;
1665;SDS011;831;48.308;14.294;2022-07-23T07:39:48;16.33;;;15.43;;
1665;SDS011;831;48.308;14.294;2022-07-23T07:42:14;16.20;;;15.40;;
1665;SDS011;831;48.308;14.294;2022-07-23T07:44:41;16.60;;;15.80;;
1665;SDS011;831;48.308;14.294;2022-07-23T07:47:07;17.07;;;16.20;;
1665;SDS011;831;48.308;14.294;2022-07-23T07:49:34;17.10;;;16.30;;
1665;SDS011;831;48.308;14.294;2022-07-23T07:52:00;17.90;;;16.80;;
1665;SDS011;831;48.308;14.294;2022-07-23T07:54:27;17.90;;;16.80;;
1665;SDS011;831;48.308;14.294;2022-07-23T07:56:55;18.27;;;17.07;;
1665;SDS011;831;48.308;14.294;2022-07-23T07:59:21;17.43;;;16.53;;
1665;SDS011;831;48.308;14.294;2022-07-23T08:01:48;17.00;;;16.10;;
1665;SDS011;831;48.308;14.294;2022-07-23T08:04:14;16.23;;;15.43;;
1665;SDS011;831;48.308;14.294;2022-07-23T08:06:41;17.53;;;16.53;;
1665;SDS011;831;48.308;14.294;2022-07-23T08:09:07;17.43;;;16.50;;
1665;SDS011;831;48.308;14.294;2022-07-23T08:11:34;16.63;;;15.60;;
1665;SDS011;831;48.308;14.294;2022-07-23T08:14:02;16.33;;;15.53;;
1665;SDS011;831;48.308;14.294;2022-07-23T08:16:29;17.17;;;16.17;;
1665;SDS011;831;48.308;14.294;2022-07-23T08:18:55;16.90;;;16.00;;
1665;SDS011;831;48.308;14.294;2022-07-23T08:21:22;17.10;;;16.30;;
1665;SDS011;831;48.308;14.294;2022-07-23T08:23:49;16.37;;;15.47;;
1665;SDS011;831;48.308;14.294;2022-07-23T08:26:15;16.50;;;15.70;;
1665;SDS011;831;48.308;14.294;2022-07-23T08:28:42;17.00;;;16.10;;
1665;SDS011;831;48.308;14.294;2022-07-23T08:31:09;16.10;;;15.20;;
1665;SDS011;831;48.308;14.294;2022-07-23T08:33:37;16.43;;;15.43;;
1665;SDS011;831;48.308;14.294;2022-07-23T08:36:04;16.50;;;15.60;;
1665;SDS011;831;48.308;14.294;2022-07-23T08:38:30;16.33;;;15.53;;
1665;SDS011;831;48.308;14.294;2022-07-23T08:40:57;16.37;;;15.53;;
1665;SDS011;831;48.308;14.294;2022-07-23T08:43:26;15.70;;;14.80;;
1665;SDS011;831;48.308;14.294;2022-07-23T08:45:53;17.20;;;16.30;;
1665;SDS011;831;48.308;14.294;2022-07-23T08:48:23;16.30;;;15.20;;
1665;SDS011;831;48.308;14.294;2022-07-23T08:50:51;16.57;;;15.67;;
1665;SDS011;831;48.308;14.294;2022-07-23T08:53:19;16.83;;;15.83;;
1665;SDS011;831;48.308;14.294;2022-07-23T08:55:46;15.60;;;14.70;;
1665;SDS011;831;48.308;14.294;2022-07-23T08:58:13;15.43;;;14.67;;
1665;SDS011;831;48.308;14.294;2022-07-23T09:00:40;16.07;;;15.17;;
1665;SDS011;831;48.308;14.294;2022-07-23T09:03:07;16.97;;;15.90;;
1665;SDS011;831;48.308;14.294;2022-07-23T09:05:35;15.50;;;14.70;;
1665;SDS011;831;48.308;14.294;2022-07-23T09:08:08;15.43;;;14.60;;
1665;SDS011;831;48.308;14.294;2022-07-23T09:10:48;16.03;;;15.23;;
1665;SDS011;831;48.308;14.294;2022-07-23T09:13:28;15.93;;;14.93;;
1665;SDS011;831;48.308;14.294;2022-07-23T09:15:56;14.93;;;14.20;;
1665;SDS011;831;48.308;14.294;2022-07-23T09:18:29;15.40;;;14.60;;
1665;SDS011;831;48.308;14.294;2022-07-23T09:21:08;15.50;;;14.60;;
1665;SDS011;831;48.308;14.294;2022-07-23T09:23:38;15.30;;;14.50;;
1665;SDS011;831;48.308;14.294;2022-07-23T09:26:11;15.40;;;14.57;;
1665;SDS011;831;48.308;14.294;2022-07-23T09:28:47;15.33;;;14.43;;
1665;SDS011;831;48.308;14.294;2022-07-23T09:31:15;15.33;;;14.33;;
1665;SDS011;831;48.308;14.294;2022-07-23T09:33:42;15.33;;;14.23;;
1665;SDS011;831;48.308;14.294;2022-07-23T09:36:10;15.40;;;14.60;;
1665;SDS011;831;48.308;14.294;2022-07-23T09:38:39;14.27;;;13.57;;
1665;SDS011;831;48.308;14.294;2022-07-23T09:41:13;15.10;;;14.30;;
1665;SDS011;831;48.308;14.294;2022-07-23T09:43:40;13.90;;;13.20;;
1665;SDS011;831;48.308;14.294;2022-07-23T09:46:16;14.40;;;13.70;;
1665;SDS011;831;48.308;14.294;2022-07-23T09:48:43;14.30;;;13.50;;
1665;SDS011;831;48.308;14.294;2022-07-23T09:51:11;14.77;;;13.90;;
1665;SDS011;831;48.308;14.294;2022-07-23T09:53:37;15.23;;;14.33;;
1665;SDS011;831;48.308;14.294;2022-07-23T09:56:04;15.10;;;14.30;;
1665;SDS011;831;48.308;14.294;2022-07-23T09:58:32;14.47;;;13.67;;
1665;SDS011;831;48.308;14.294;2022-07-23T10:00:58;14.20;;;13.50;;
1665;SDS011;831;48.308;14.294;2022-07-23T10:03:25;14.70;;;14.00;;
1665;SDS011;831;48.308;14.294;2022-07-23T10:05:52;14.60;;;13.80;;
1665;SDS011;831;48.308;14.294;2022-07-23T10:08:20;14.90;;;14.10;;
1665;SDS011;831;48.308;14.294;2022-07-23T10:10:47;14.10;;;13.40;;
1665;SDS011;831;48.308;14.294;2022-07-23T10:13:15;13.90;;;13.20;;
1665;SDS011;831;48.308;14.294;2022-07-23T10:15:56;14.27;;;13.43;;
1665;SDS011;831;48.308;14.294;2022-07-23T10:18:22;13.93;;;13.13;;
1665;SDS011;831;48.308;14.294;2022-07-23T10:20:49;14.40;;;13.60;;
1665;SDS011;831;48.308;14.294;2022-07-23T10:23:18;13.53;;;12.83;;
1665;SDS011;831;48.308;14.294;2022-07-23T10:25:51;14.00;;;13.30;;
1665;SDS011;831;48.308;14.294;2022-07-23T10:28:41;14.10;;;13.40;;
1665;SDS011;831;48.308;14.294;2022-07-23T10:31:09;13.37;;;12.57;;
1665;SDS011;831;48.308;14.294;2022-07-23T10:33:45;13.50;;;12.90;;
1665;SDS011;831;48.308;14.294;2022-07-23T10:36:18;13.70;;;13.00;;
1665;SDS011;831;48.308;14.294;2022-07-23T10:38:48;13.37;;;12.77;;
1665;SDS011;831;48.308;14.294;2022-07-23T10:41:22;13.93;;;13.20;;
1665;SDS011;831;48.308;14.294;2022-07-23T10:44:05;13.60;;;13.00;;
1665;SDS011;831;48.308;14.294;2022-07-23T10:46:31;13.23;;;12.53;;
1665;SDS011;831;48.308;14.294;2022-07-23T10:54:25;13.13;;;12.50;;
1665;SDS011;831;48.308;14.294;2022-07-23T10:57:06;13.40;;;12.80;;
1665;SDS011;831;48.308;14.294;2022-07-23T11:02:20;13.03;;;12.43;;
1665;SDS011;831;48.308;14.294;2022-07-23T11:04:51;13.40;;;12.70;;
1665;SDS011;831;48.308;14.294;2022-07-23T11:07:18;14.10;;;13.40;;
1665;SDS011;831;48.308;14.294;2022-07-23T11:09:44;14.93;;;14.13;;
1665;SDS011;831;48.308;14.294;2022-07-23T11:14:59;13.60;;;13.00;;
1665;SDS011;831;48.308;14.294;2022-07-23T11:17:26;13.80;;;13.00;;
1665;SDS011;831;48.308;14.294;2022-07-23T11:22:47;14.97;;;14.27;;
1665;SDS011;831;48.308;14.294;2022-07-23T11:25:27;14.97;;;14.20;;
1665;SDS011;831;48.308;14.294;2022-07-23T11:27:55;15.23;;;14.43;;
1665;SDS011;831;48.308;14.294;2022-07-23T11:33:18;14.30;;;13.60;;
1665;SDS011;831;48.308;14.294;2022-07-23T11:35:46;14.37;;;13.67;;
1665;SDS011;831;48.308;14.294;2022-07-23T11:38:13;14.20;;;13.30;;
1665;SDS011;831;48.308;14.294;2022-07-23T11:40:40;14.30;;;13.60;;
1665;SDS011;831;48.308;14.294;2022-07-23T11:43:07;14.33;;;13.63;;
1665;SDS011;831;48.308;14.294;2022-07-23T11:45:35;14.43;;;13.67;;
1665;SDS011;831;48.308;14.294;2022-07-23T11:48:02;14.77;;;14.00;;
1665;SDS011;831;48.308;14.294;2022-07-23T11:50:31;14.50;;;13.80;;
1665;SDS011;831;48.308;14.294;2022-07-23T11:52:58;15.43;;;14.60;;
1665;SDS011;831;48.308;14.294;2022-07-23T11:55:24;14.67;;;13.97;;
1665;SDS011;831;48.308;14.294;2022-07-23T11:57:53;15.60;;;14.80;;
1665;SDS011;831;48.308;14.294;2022-07-23T12:00:20;14.37;;;13.67;;
1665;SDS011;831;48.308;14.294;2022-07-23T12:02:48;15.30;;;14.40;;
1665;SDS011;831;48.308;14.294;2022-07-23T12:05:16;15.43;;;14.63;;
1665;SDS011;831;48.308;14.294;2022-07-23T12:07:44;14.83;;;14.03;;
1665;SDS011;831;48.308;14.294;2022-07-23T12:10:16;15.50;;;14.70;;
1665;SDS011;831;48.308;14.294;2022-07-23T12:12:43;14.00;;;13.30;;
1665;SDS011;831;48.308;14.294;2022-07-23T12:15:10;14.80;;;14.10;;
1665;SDS011;831;48.308;14.294;2022-07-23T12:17:38;14.27;;;13.47;;
1665;SDS011;831;48.308;14.294;2022-07-23T12:20:06;15.33;;;14.23;;
1665;SDS011;831;48.308;14.294;2022-07-23T12:22:34;14.90;;;14.00;;
1665;SDS011;831;48.308;14.294;2022-07-23T12:25:03;15.57;;;14.67;;
1665;SDS011;831;48.308;14.294;2022-07-23T12:27:30;14.50;;;13.80;;
1665;SDS011;831;48.308;14.294;2022-07-23T12:29:57;14.63;;;13.83;;
1665;SDS011;831;48.308;14.294;2022-07-23T12:32:24;15.40;;;14.60;;
1665;SDS011;831;48.308;14.294;2022-07-23T12:35:01;15.47;;;14.73;;
1665;SDS011;831;48.308;14.294;2022-07-23T12:37:29;14.67;;;13.90;;
1665;SDS011;831;48.308;14.294;2022-07-23T12:39:56;15.90;;;15.10;;
1665;SDS011;831;48.308;14.294;2022-07-23T12:42:24;15.90;;;15.00;;
1665;SDS011;831;48.308;14.294;2022-07-23T12:45:03;16.00;;;15.20;;
1665;SDS011;831;48.308;14.294;2022-07-23T12:47:30;14.90;;;14.20;;
1665;SDS011;831;48.308;14.294;2022-07-23T12:49:56;15.60;;;14.70;;
1665;SDS011;831;48.308;14.294;2022-07-23T12:52:23;14.30;;;13.53;;
1665;SDS011;831;48.308;14.294;2022-07-23T12:54:50;15.50;;;14.70;;
1665;SDS011;831;48.308;14.294;2022-07-23T12:57:16;14.60;;;13.70;;
1665;SDS011;831;48.308;14.294;2022-07-23T12:59:44;14.93;;;14.23;;
1665;SDS011;831;48.308;14.294;2022-07-23T13:02:11;15.03;;;14.23;;
1665;SDS011;831;48.308;14.294;2022-07-23T13:04:38;14.80;;;14.10;;
1665;SDS011;831;48.308;14.294;2022-07-23T13:07:04;15.57;;;14.80;;
1665;SDS011;831;48.308;14.294;2022-07-23T13:09:31;15.50;;;14.70;;
1665;SDS011;831;48.308;14.294;2022-07-23T13:11:59;15.60;;;14.80;;
1665;SDS011;831;48.308;14.294;2022-07-23T13:14:26;15.10;;;14.40;;
1665;SDS011;831;48.308;14.294;2022-07-23T13:16:54;16.00;;;14.93;;
1665;SDS011;831;48.308;14.294;2022-07-23T13:19:21;14.67;;;14.03;;
1665;SDS011;831;48.308;14.294;2022-07-23T13:21:47;15.37;;;14.67;;
1665;SDS011;831;48.308;14.294;2022-07-23T13:24:14;15.23;;;14.53;;
1665;SDS011;831;48.308;14.294;2022-07-23T13:26:41;15.67;;;14.87;;
1665;SDS011;831;48.308;14.294;2022-07-23T13:29:08;15.93;;;15.03;;
1665;SDS011;831;48.308;14.294;2022-07-23T13:31:35;16.20;;;15.30;;
1665;SDS011;831;48.308;14.294;2022-07-23T13:34:03;15.80;;;15.00;;
1665;SDS011;831;48.308;14.294;2022-07-23T13:36:30;15.23;;;14.53;;
1665;SDS011;831;48.308;14.294;2022-07-23T13:38:57;15.47;;;14.67;;
1665;SDS011;831;48.308;14.294;2022-07-23T13:41:23;15.50;;;14.80;;
1665;SDS011;831;48.308;14.294;2022-07-23T13:43:50;15.37;;;14.57;;
1665;SDS011;831;48.308;14.294;2022-07-23T13:46:16;15.40;;;14.60;;
1665;SDS011;831;48.308;14.294;2022-07-23T13:48:43;15.87;;;14.97;;
1665;SDS011;831;48.308;14.294;2022-07-23T13:51:11;15.93;;;15.00;;
1665;SDS011;831;48.308;14.294;2022-07-23T13:53:38;15.67;;;14.97;;
1665;SDS011;831;48.308;14.294;2022-07-23T13:56:04;16.57;;;15.77;;
1665;SDS011;831;48.308;14.294;2022-07-23T13:58:31;16.10;;;15.30;;
1665;SDS011;831;48.308;14.294;2022-07-23T14:00:57;16.37;;;15.57;;
1665;SDS011;831;48.308;14.294;2022-07-23T14:03:24;16.10;;;15.30;;
1665;SDS011;831;48.308;14.294;2022-07-23T14:05:51;15.83;;;15.03;;
1665;SDS011;831;48.308;14.294;2022-07-23T14:08:19;16.27;;;15.47;;
1665;SDS011;831;48.308;14.294;2022-07-23T14:10:46;16.47;;;15.70;;
1665;SDS011;831;48.308;14.294;2022-07-23T14:13:12;15.70;;;14.90;;
1665;SDS011;831;48.308;14.294;2022-07-23T14:15:39;15.87;;;15.07;;
1665;SDS011;831;48.308;14.294;2022-07-23T14:18:05;16.40;;;15.60;;
1665;SDS011;831;48.308;14.294;2022-07-23T14:20:32;15.63;;;14.83;;
1665;SDS011;831;48.308;14.294;2022-07-23T14:22:59;15.77;;;14.97;;
1665;SDS011;831;48.308;14.294;2022-07-23T14:25:27;16.23;;;15.43;;
1665;SDS011;831;48.308;14.294;2022-07-23T14:27:54;15.80;;;15.00;;
1665;SDS011;831;48.308;14.294;2022-07-23T14:30:21;15.20;;;14.40;;
1665;SDS011;831;48.308;14.294;2022-07-23T14:32:48;16.10;;;15.20;;
1665;SDS011;831;48.308;14.294;2022-07-23T14:35:15;15.87;;;15.07;;
1665;SDS011;831;48.308;14.294;2022-07-23T14:37:41;16.50;;;15.50;;
1665;SDS011;831;48.308;14.294;2022-07-23T14:40:08;15.70;;;14.90;;
1665;SDS011;831;48.308;14.294;2022-07-23T14:42:36;16.50;;;15.60;;
1665;SDS011;831;48.308;14.294;2022-07-23T14:45:03;15.90;;;15.10;;
1665;SDS011;831;48.308;14.294;2022-07-23T14:47:31;15.87;;;15.07;;
1665;SDS011;831;48.308;14.294;2022-07-23T14:49:58;16.00;;;15.10;;
1665;SDS011;831;48.308;14.294;2022-07-23T14:52:24;15.67;;;14.77;;
1665;SDS011;831;48.308;14.294;2022-07-23T14:54:51;15.97;;;15.17;;
1665;SDS011;831;48.308;14.294;2022-07-23T14:57:17;15.37;;;14.37;;
1665;SDS011;831;48.308;14.294;2022-07-23T14:59:45;16.70;;;15.80;;
1665;SDS011;831;48.308;14.294;2022-07-23T15:02:12;16.90;;;16.00;;
1665;SDS011;831;48.308;14.294;2022-07-23T15:04:38;16.47;;;15.67;;
1665;SDS011;831;48.308;14.294;2022-07-23T15:07:05;16.50;;;15.60;;